createdAt,value
2023-05-06T00:00:12.371Z,56.6105
2023-05-06T00:01:14.719Z,56.5466
2023-05-06T00:02:16.981Z,56.5721
2023-05-06T00:03:18.690Z,56.6651
2023-05-06T00:04:22.079Z,56.5578
2023-05-06T00:05:23.888Z,56.4339
2023-05-06T00:06:25.616Z,56.5693
2023-05-06T00:07:28.076Z,56.4867
2023-05-06T00:08:30.383Z,56.0387
2023-05-06T00:09:32.661Z,55.8519
2023-05-06T00:10:35.114Z,55.3820
2023-05-06T00:11:38.117Z,55.0927
2023-05-06T00:12:39.676Z,55.7589
2023-05-06T00:13:42.013Z,55.8787
2023-05-06T00:14:44.959Z,55.6316
2023-05-06T00:15:46.657Z,55.8504
2023-05-06T00:16:49.066Z,55.6911
2023-05-06T00:17:51.760Z,55.3542
2023-05-06T00:18:54.090Z,55.4685
2023-05-06T00:19:56.025Z,55.7465
2023-05-06T00:20:58.359Z,55.8330
2023-05-06T00:22:00.692Z,56.0023
2023-05-06T00:23:03.025Z,55.9392
2023-05-06T00:24:05.464Z,55.6889
2023-05-06T00:25:08.134Z,55.8993
2023-05-06T00:26:10.190Z,55.7388
2023-05-06T00:27:12.499Z,55.5195
2023-05-06T00:28:14.812Z,55.5951
2023-05-06T00:29:17.793Z,55.7678
2023-05-06T00:30:21.511Z,56.0659
2023-05-06T00:31:22.351Z,56.2517
2023-05-06T00:32:24.348Z,56.3950
2023-05-06T00:33:26.421Z,56.5552
2023-05-06T00:34:28.979Z,56.6650
2023-05-06T00:35:31.161Z,56.7295
2023-05-06T00:36:33.764Z,56.8897
2023-05-06T00:37:35.791Z,57.0127
2023-05-06T00:38:39.850Z,57.0365
2023-05-06T00:39:41.872Z,57.0306
2023-05-06T00:40:42.894Z,57.0955
2023-05-06T00:41:45.140Z,57.2175
2023-05-06T00:42:47.457Z,57.4216
2023-05-06T00:43:49.813Z,57.6114
2023-05-06T00:44:52.168Z,57.7703
2023-05-06T00:45:54.557Z,57.7830
2023-05-06T00:46:56.783Z,57.9821
2023-05-06T00:47:59.238Z,58.1737
2023-05-06T00:49:01.515Z,58.0002
2023-05-06T00:50:03.817Z,57.7078
2023-05-06T00:51:06.154Z,57.6775
2023-05-06T00:52:08.485Z,57.6398
2023-05-06T00:53:10.821Z,57.6858
2023-05-06T00:54:13.164Z,57.9721
2023-05-06T00:55:15.565Z,58.1338
2023-05-06T00:56:20.017Z,58.2071
2023-05-06T00:57:20.168Z,58.4914
2023-05-06T00:58:22.510Z,58.4734
2023-05-06T00:59:24.879Z,58.2872
2023-05-06T01:00:27.195Z,57.9750
2023-05-06T01:01:29.582Z,57.8859
2023-05-06T01:02:43.282Z,58.1212
2023-05-06T01:03:34.292Z,58.1243
2023-05-06T01:04:36.559Z,58.3503
2023-05-06T01:05:38.866Z,58.2718
2023-05-06T01:06:41.195Z,57.9415
2023-05-06T01:07:43.542Z,57.9198
2023-05-06T01:08:45.885Z,57.8841
2023-05-06T01:09:48.289Z,57.8100
2023-05-06T01:10:50.713Z,57.6123
2023-05-06T01:11:52.975Z,57.2956
2023-05-06T01:12:55.376Z,57.5721
2023-05-06T01:13:57.657Z,57.8980
2023-05-06T01:15:00.033Z,57.4536
2023-05-06T01:16:02.336Z,57.5284
2023-05-06T01:17:04.705Z,57.9078
2023-05-06T01:18:07.051Z,57.8799
2023-05-06T01:19:09.376Z,57.9756
2023-05-06T01:20:11.738Z,57.9703
2023-05-06T01:21:14.014Z,58.0437
2023-05-06T01:22:16.358Z,58.0233
2023-05-06T01:23:18.713Z,58.1079
2023-05-06T01:24:21.054Z,57.9030
2023-05-06T01:25:23.391Z,57.7899
2023-05-06T01:26:25.808Z,57.6193
2023-05-06T01:27:28.145Z,57.2109
2023-05-06T01:28:30.428Z,57.2623
2023-05-06T01:29:32.832Z,57.1671
2023-05-06T01:30:35.105Z,57.3080
2023-05-06T01:31:37.509Z,57.6913
2023-05-06T01:32:39.783Z,57.4022
2023-05-06T01:33:42.114Z,57.6143
2023-05-06T01:34:44.593Z,56.9291
2023-05-06T01:35:46.837Z,56.6425
2023-05-06T01:36:49.147Z,56.5583
2023-05-06T01:37:51.552Z,56.8581
2023-05-06T01:38:53.784Z,56.8632
2023-05-06T01:39:56.144Z,56.4379
2023-05-06T01:40:58.488Z,56.0794
2023-05-06T01:42:00.824Z,56.1168
2023-05-06T01:43:03.181Z,56.2151
2023-05-06T01:44:05.453Z,56.3276
2023-05-06T01:45:08.170Z,56.5183
2023-05-06T01:46:10.357Z,56.4475
2023-05-06T01:47:12.649Z,56.3803
2023-05-06T01:48:14.852Z,55.4355
2023-05-06T01:49:17.199Z,54.6745
2023-05-06T01:50:19.476Z,54.6006
2023-05-06T01:51:21.896Z,54.1941
2023-05-06T01:52:24.183Z,53.8928
2023-05-06T01:53:26.527Z,54.7669
2023-05-06T01:54:28.870Z,55.6971
2023-05-06T01:55:31.198Z,56.3998
2023-05-06T01:56:33.555Z,56.7900
2023-05-06T01:57:35.937Z,56.8907
2023-05-06T01:58:38.209Z,57.1552
2023-05-06T01:59:40.555Z,57.2672
2023-05-06T02:00:42.891Z,57.3764
2023-05-06T02:01:45.283Z,57.3982
2023-05-06T02:02:47.716Z,57.5692
2023-05-06T02:03:50.064Z,57.7492
2023-05-06T02:04:52.232Z,57.6622
2023-05-06T02:05:54.564Z,57.7130
2023-05-06T02:06:56.918Z,57.5971
2023-05-06T02:07:59.209Z,57.6093
2023-05-06T02:09:01.573Z,57.6251
2023-05-06T02:10:03.919Z,57.5114
2023-05-06T02:11:06.253Z,57.7764
2023-05-06T02:12:08.647Z,57.8260
2023-05-06T02:13:11.054Z,57.5050
2023-05-06T02:14:13.257Z,57.4359
2023-05-06T02:15:15.709Z,57.3803
2023-05-06T02:16:17.979Z,57.6817
2023-05-06T02:17:20.369Z,57.6857
2023-05-06T02:18:22.745Z,57.7471
2023-05-06T02:19:24.959Z,57.4083
2023-05-06T02:20:27.342Z,56.8402
2023-05-06T02:21:29.802Z,56.8326
2023-05-06T02:22:31.991Z,57.1499
2023-05-06T02:23:34.318Z,57.0902
2023-05-06T02:24:36.904Z,56.9693
2023-05-06T02:25:39.133Z,57.2856
2023-05-06T02:26:41.462Z,57.1744
2023-05-06T02:27:43.743Z,57.2060
2023-05-06T02:28:46.102Z,57.1872
2023-05-06T02:29:48.348Z,57.1996
2023-05-06T02:30:50.692Z,57.3728
2023-05-06T02:31:53.171Z,57.1560
2023-05-06T02:32:55.422Z,56.9191
2023-05-06T02:33:57.809Z,57.1261
2023-05-06T02:35:00.065Z,57.1992
2023-05-06T02:36:02.809Z,56.9242
2023-05-06T02:37:04.707Z,56.7643
2023-05-06T02:38:07.082Z,57.0754
2023-05-06T02:39:09.572Z,57.2693
2023-05-06T02:40:11.843Z,56.9712
2023-05-06T02:41:14.097Z,56.2845
2023-05-06T02:42:16.614Z,56.1022
2023-05-06T02:43:19.217Z,56.5113
2023-05-06T02:44:21.176Z,56.2977
2023-05-06T02:45:23.465Z,55.7369
2023-05-06T02:46:25.799Z,56.1626
2023-05-06T02:47:28.179Z,56.4336
2023-05-06T02:48:30.491Z,56.5661
2023-05-06T02:49:32.855Z,56.2138
2023-05-06T02:50:35.162Z,56.2575
2023-05-06T02:51:37.496Z,56.2008
2023-05-06T02:52:39.841Z,55.8085
2023-05-06T02:53:42.178Z,55.6592
2023-05-06T02:54:44.530Z,55.4806
2023-05-06T02:55:47.008Z,55.5679
2023-05-06T02:56:49.210Z,55.9867
2023-05-06T02:57:51.552Z,56.0802
2023-05-06T02:58:53.919Z,55.9694
2023-05-06T02:59:56.316Z,55.9158
2023-05-06T03:00:58.592Z,56.2536
2023-05-06T03:02:00.917Z,56.0675
2023-05-06T03:03:03.267Z,56.3843
2023-05-06T03:04:05.632Z,56.4366
2023-05-06T03:05:08.163Z,56.4687
2023-05-06T03:06:10.283Z,56.5808
2023-05-06T03:07:12.614Z,56.5687
2023-05-06T03:08:14.959Z,56.5018
2023-05-06T03:09:17.319Z,56.6577
2023-05-06T03:10:19.644Z,56.7903
2023-05-06T03:11:21.986Z,56.6864
2023-05-06T03:12:24.321Z,56.4681
2023-05-06T03:13:26.657Z,56.4941
2023-05-06T03:14:29.007Z,56.7740
2023-05-06T03:15:31.417Z,56.7361
2023-05-06T03:16:33.678Z,56.6924
2023-05-06T03:17:36.145Z,56.9948
2023-05-06T03:18:38.379Z,57.2816
2023-05-06T03:19:40.724Z,57.3542
2023-05-06T03:20:43.055Z,57.0423
2023-05-06T03:21:45.452Z,57.0346
2023-05-06T03:22:47.727Z,56.8645
2023-05-06T03:23:50.090Z,56.5967
2023-05-06T03:24:52.435Z,56.8149
2023-05-06T03:25:54.749Z,57.0566
2023-05-06T03:26:57.070Z,57.0126
2023-05-06T03:27:59.422Z,56.9942
2023-05-06T03:29:01.783Z,57.1752
2023-05-06T03:30:04.138Z,57.0895
2023-05-06T03:31:06.745Z,56.9012
2023-05-06T03:32:08.809Z,56.8264
2023-05-06T03:33:11.126Z,56.7061
2023-05-06T03:34:13.491Z,56.8258
2023-05-06T03:35:15.860Z,56.8971
2023-05-06T03:36:18.172Z,56.7342
2023-05-06T03:37:20.519Z,56.9103
2023-05-06T03:38:22.842Z,56.9098
2023-05-06T03:39:25.188Z,56.8881
2023-05-06T03:40:27.573Z,56.9308
2023-05-06T03:41:29.891Z,57.0241
2023-05-06T03:42:32.232Z,57.0614
2023-05-06T03:43:34.552Z,57.1560
2023-05-06T03:44:36.892Z,57.0787
2023-05-06T03:45:39.201Z,56.8726
2023-05-06T03:46:41.953Z,56.7266
2023-05-06T03:47:43.932Z,56.8313
2023-05-06T03:48:46.242Z,56.8062
2023-05-06T03:49:48.613Z,56.9877
2023-05-06T03:50:50.959Z,57.2952
2023-05-06T03:51:53.279Z,57.2471
2023-05-06T03:52:55.619Z,57.2640
2023-05-06T03:53:57.957Z,57.3637
2023-05-06T03:55:00.304Z,56.6244
2023-05-06T03:56:02.656Z,56.7079
2023-05-06T03:57:04.979Z,57.0218
2023-05-06T03:58:07.315Z,57.1367
2023-05-06T03:59:09.655Z,56.8968
2023-05-06T04:00:11.970Z,56.6988
2023-05-06T04:01:14.337Z,56.7272
2023-05-06T04:02:16.853Z,57.0770
2023-05-06T04:03:19.089Z,57.3070
2023-05-06T04:04:21.374Z,57.3548
2023-05-06T04:05:23.720Z,57.6154
2023-05-06T04:06:26.058Z,57.6095
2023-05-06T04:07:28.392Z,57.4006
2023-05-06T04:08:30.745Z,57.4949
2023-05-06T04:09:33.088Z,57.3955
2023-05-06T04:10:35.420Z,57.2087
2023-05-06T04:11:37.759Z,56.8531
2023-05-06T04:12:40.106Z,56.8308
2023-05-06T04:13:42.460Z,56.8896
2023-05-06T04:14:45.225Z,57.0051
2023-05-06T04:15:47.824Z,57.1014
2023-05-06T04:16:49.472Z,57.3907
2023-05-06T04:17:52.062Z,57.4335
2023-05-06T04:18:54.162Z,57.0979
2023-05-06T04:19:56.469Z,57.4761
2023-05-06T04:20:58.964Z,57.9071
2023-05-06T04:22:01.508Z,58.7625
2023-05-06T04:23:03.524Z,58.6695
2023-05-06T04:24:06.393Z,58.4487
2023-05-06T04:25:08.401Z,58.3787
2023-05-06T04:26:10.966Z,58.2963
2023-05-06T04:27:13.970Z,58.4413
2023-05-06T04:28:15.654Z,58.7079
2023-05-06T04:29:17.626Z,59.6361
2023-05-06T04:30:19.922Z,59.1653
2023-05-06T04:31:22.272Z,58.2427
2023-05-06T04:32:24.609Z,58.4055
2023-05-06T04:33:26.959Z,58.5909
2023-05-06T04:34:29.301Z,58.8372
2023-05-06T04:35:31.633Z,58.9348
2023-05-06T04:36:33.992Z,58.5514
2023-05-06T04:37:36.513Z,59.0339
2023-05-06T04:38:38.667Z,59.3566
2023-05-06T04:39:41.010Z,60.0808
2023-05-06T04:40:43.480Z,59.7779
2023-05-06T04:41:45.656Z,58.8387
2023-05-06T04:42:48.006Z,59.0647
2023-05-06T04:43:50.306Z,59.2131
2023-05-06T04:44:52.695Z,58.6800
2023-05-06T04:45:55.050Z,57.9715
2023-05-06T04:46:57.383Z,57.9142
2023-05-06T04:47:59.732Z,57.6344
2023-05-06T04:49:02.122Z,58.0938
2023-05-06T04:50:04.422Z,58.3601
2023-05-06T04:51:06.718Z,58.2669
2023-05-06T04:52:09.066Z,58.2967
2023-05-06T04:53:11.400Z,58.3246
2023-05-06T04:54:13.761Z,58.0918
2023-05-06T04:55:16.122Z,58.3327
2023-05-06T04:56:18.434Z,58.2486
2023-05-06T04:57:20.774Z,58.4177
2023-05-06T04:58:23.120Z,58.9385
2023-05-06T04:59:25.482Z,59.2658
2023-05-06T05:00:27.820Z,59.2157
2023-05-06T05:01:30.206Z,59.2638
2023-05-06T05:02:32.573Z,59.1875
2023-05-06T05:03:34.920Z,59.3515
2023-05-06T05:04:37.171Z,59.2388
2023-05-06T05:05:39.530Z,59.0716
2023-05-06T05:06:41.864Z,59.0878
2023-05-06T05:07:44.193Z,59.4669
2023-05-06T05:08:46.551Z,60.0849
2023-05-06T05:09:48.885Z,60.1687
2023-05-06T05:10:51.245Z,60.0005
2023-05-06T05:11:53.568Z,59.7994
2023-05-06T05:12:55.952Z,59.9360
2023-05-06T05:13:59.579Z,60.1006
2023-05-06T05:15:00.717Z,60.1129
2023-05-06T05:16:03.044Z,60.1475
2023-05-06T05:17:05.418Z,60.1354
2023-05-06T05:18:07.820Z,60.2613
2023-05-06T05:19:10.060Z,60.1298
2023-05-06T05:20:12.411Z,59.4674
2023-05-06T05:21:14.760Z,59.3671
2023-05-06T05:22:17.088Z,59.3981
2023-05-06T05:23:19.426Z,59.4070
2023-05-06T05:24:21.765Z,59.2557
2023-05-06T05:25:24.104Z,59.1430
2023-05-06T05:26:26.450Z,59.4003
2023-05-06T05:27:28.801Z,58.8268
2023-05-06T05:28:31.139Z,58.7062
2023-05-06T05:29:33.482Z,58.9530
2023-05-06T05:30:35.819Z,58.7591
2023-05-06T05:31:38.190Z,58.5414
2023-05-06T05:32:40.507Z,58.4542
2023-05-06T05:33:42.889Z,58.8304
2023-05-06T05:34:45.203Z,58.9368
2023-05-06T05:35:47.609Z,58.7794
2023-05-06T05:36:49.873Z,58.7494
2023-05-06T05:37:52.213Z,59.1197
2023-05-06T05:38:54.569Z,58.6198
2023-05-06T05:39:56.899Z,58.1935
2023-05-06T05:40:59.234Z,58.4083
2023-05-06T05:42:01.587Z,58.3593
2023-05-06T05:43:03.916Z,58.2633
2023-05-06T05:44:06.259Z,58.4824
2023-05-06T05:45:08.706Z,58.3930
2023-05-06T05:46:10.951Z,58.2036
2023-05-06T05:47:13.272Z,58.3368
2023-05-06T05:48:15.616Z,58.1642
2023-05-06T05:49:17.967Z,58.0646
2023-05-06T05:50:20.296Z,58.0505
2023-05-06T05:51:22.820Z,58.1972
2023-05-06T05:52:24.978Z,58.6608
2023-05-06T05:53:27.317Z,57.6753
2023-05-06T05:54:29.698Z,57.8249
2023-05-06T05:55:31.995Z,58.0067
2023-05-06T05:56:34.338Z,57.9295
2023-05-06T05:57:37.504Z,58.3021
2023-05-06T05:58:39.062Z,57.9676
2023-05-06T05:59:41.414Z,57.8830
2023-05-06T06:00:44.040Z,57.9883
2023-05-06T06:01:46.465Z,57.7060
2023-05-06T06:02:48.426Z,57.5466
2023-05-06T06:03:50.948Z,57.4465
2023-05-06T06:04:53.249Z,57.7865
2023-05-06T06:05:55.596Z,58.3678
2023-05-06T06:06:57.917Z,58.3818
2023-05-06T06:08:02.210Z,58.0921
2023-05-06T06:09:02.400Z,58.5292
2023-05-06T06:10:04.787Z,58.4718
2023-05-06T06:11:07.168Z,58.2254
2023-05-06T06:12:09.424Z,58.0460
2023-05-06T06:13:11.877Z,58.1678
2023-05-06T06:14:14.171Z,57.9757
2023-05-06T06:15:16.459Z,58.0647
2023-05-06T06:16:18.855Z,58.0675
2023-05-06T06:17:21.677Z,58.0581
2023-05-06T06:18:23.467Z,58.1088
2023-05-06T06:19:25.823Z,58.1468
2023-05-06T06:20:28.154Z,58.2880
2023-05-06T06:21:30.635Z,58.3902
2023-05-06T06:22:32.991Z,58.5182
2023-05-06T06:23:35.241Z,58.1662
2023-05-06T06:24:37.539Z,58.0295
2023-05-06T06:25:39.996Z,57.9429
2023-05-06T06:26:42.277Z,57.9034
2023-05-06T06:27:44.605Z,57.8662
2023-05-06T06:28:47.030Z,57.9147
2023-05-06T06:29:49.205Z,57.9487
2023-05-06T06:30:52.605Z,57.3010
2023-05-06T06:31:54.862Z,57.3330
2023-05-06T06:32:56.483Z,57.4403
2023-05-06T06:33:58.907Z,57.4039
2023-05-06T06:35:00.890Z,57.5789
2023-05-06T06:36:03.232Z,57.6722
2023-05-06T06:37:07.806Z,57.7782
2023-05-06T06:38:12.313Z,57.8681
2023-05-06T06:39:10.239Z,58.2622
2023-05-06T06:40:14.890Z,58.0676
2023-05-06T06:41:15.096Z,57.9620
2023-05-06T06:42:17.789Z,57.8649
2023-05-06T06:43:19.593Z,57.7295
2023-05-06T06:44:22.857Z,57.5033
2023-05-06T06:45:24.811Z,57.7536
2023-05-06T06:46:26.627Z,57.4123
2023-05-06T06:47:29.055Z,57.1246
2023-05-06T06:48:31.366Z,57.3303
2023-05-06T06:49:33.728Z,57.1557
2023-05-06T06:50:35.975Z,57.1689
2023-05-06T06:51:38.310Z,57.2675
2023-05-06T06:52:40.720Z,57.5729
2023-05-06T06:53:43.120Z,57.8348
2023-05-06T06:54:45.334Z,58.2537
2023-05-06T06:55:47.770Z,58.2369
2023-05-06T06:56:50.007Z,58.1296
2023-05-06T06:57:52.345Z,58.0822
2023-05-06T06:58:54.665Z,58.3430
2023-05-06T06:59:57.136Z,58.3385
2023-05-06T07:00:59.406Z,57.8412
2023-05-06T07:02:01.671Z,57.6184
2023-05-06T07:03:04.139Z,57.7968
2023-05-06T07:04:07.227Z,57.3989
2023-05-06T07:05:08.992Z,57.5240
2023-05-06T07:06:11.009Z,57.8540
2023-05-06T07:07:13.511Z,57.6642
2023-05-06T07:08:16.059Z,57.5698
2023-05-06T07:09:18.100Z,57.6222
2023-05-06T07:10:20.730Z,57.4284
2023-05-06T07:11:22.802Z,57.7771
2023-05-06T07:12:25.234Z,57.5051
2023-05-06T07:13:27.438Z,57.2204
2023-05-06T07:14:29.736Z,57.5463
2023-05-06T07:15:32.200Z,57.1684
2023-05-06T07:16:34.409Z,56.4936
2023-05-06T07:17:36.919Z,57.2544
2023-05-06T07:18:39.814Z,57.1789
2023-05-06T07:19:41.422Z,57.0929
2023-05-06T07:20:43.798Z,57.1268
2023-05-06T07:21:46.120Z,56.6939
2023-05-06T07:22:48.471Z,56.2764
2023-05-06T07:23:50.816Z,56.1700
2023-05-06T07:24:53.287Z,56.0323
2023-05-06T07:25:55.539Z,56.0662
2023-05-06T07:26:58.055Z,56.8174
2023-05-06T07:28:00.139Z,56.0818
2023-05-06T07:29:11.842Z,56.2552
2023-05-06T07:30:04.888Z,56.4032
2023-05-06T07:31:07.356Z,56.8007
2023-05-06T07:32:09.589Z,56.0185
2023-05-06T07:33:11.970Z,56.8426
2023-05-06T07:34:14.566Z,56.4150
2023-05-06T07:35:16.536Z,56.5819
2023-05-06T07:36:18.853Z,56.6604
2023-05-06T07:37:21.229Z,56.6844
2023-05-06T07:38:23.558Z,56.4600
2023-05-06T07:39:25.958Z,55.9283
2023-05-06T07:40:28.294Z,55.6569
2023-05-06T07:41:30.551Z,56.3112
2023-05-06T07:42:32.935Z,56.1844
2023-05-06T07:43:35.327Z,55.7519
2023-05-06T07:44:37.588Z,55.2531
2023-05-06T07:45:40.022Z,54.9193
2023-05-06T07:46:42.440Z,55.5411
2023-05-06T07:47:44.687Z,55.7244
2023-05-06T07:48:46.986Z,56.0928
2023-05-06T07:49:49.316Z,56.4816
2023-05-06T07:50:51.965Z,56.0921
2023-05-06T07:51:54.032Z,55.3815
2023-05-06T07:52:56.597Z,55.2040
2023-05-06T07:53:58.762Z,54.8904
2023-05-06T07:55:01.008Z,55.3036
2023-05-06T07:56:03.425Z,55.5493
2023-05-06T07:57:06.159Z,55.2626
2023-05-06T07:58:08.012Z,54.6711
2023-05-06T07:59:10.477Z,53.6183
2023-05-06T08:00:12.878Z,52.9299
2023-05-06T08:01:15.041Z,53.2624
2023-05-06T08:02:17.591Z,53.2746
2023-05-06T08:03:20.219Z,52.9597
2023-05-06T08:04:22.754Z,52.7420
2023-05-06T08:05:25.467Z,52.6272
2023-05-06T08:06:27.395Z,53.1844
2023-05-06T08:07:29.279Z,52.6311
2023-05-06T08:08:31.541Z,52.9613
2023-05-06T08:09:34.030Z,53.1998
2023-05-06T08:10:36.250Z,53.7337
2023-05-06T08:11:39.137Z,53.8213
2023-05-06T08:12:40.879Z,53.1589
2023-05-06T08:13:43.262Z,52.4756
2023-05-06T08:14:47.174Z,51.6727
2023-05-06T08:15:47.961Z,50.2061
2023-05-06T08:16:50.415Z,50.4033
2023-05-06T08:17:52.965Z,49.6720
2023-05-06T08:18:55.454Z,49.9316
2023-05-06T08:19:57.288Z,50.2445
2023-05-06T08:20:59.623Z,50.3017
2023-05-06T08:22:02.285Z,49.9206
2023-05-06T08:23:04.713Z,48.9073
2023-05-06T08:24:06.781Z,49.3164
2023-05-06T08:25:11.006Z,48.6333
2023-05-06T08:26:11.330Z,47.8070
2023-05-06T08:27:15.013Z,48.0661
2023-05-06T08:28:15.958Z,47.1474
2023-05-06T08:29:18.405Z,47.9808
2023-05-06T08:30:20.674Z,48.2064
2023-05-06T08:31:23.028Z,48.4013
2023-05-06T08:32:25.530Z,47.6851
2023-05-06T08:33:27.694Z,47.1746
2023-05-06T08:34:30.024Z,46.8777
2023-05-06T08:35:32.419Z,46.9534
2023-05-06T08:36:34.672Z,47.4507
2023-05-06T08:37:37.167Z,46.7801
2023-05-06T08:38:39.390Z,46.4474
2023-05-06T08:39:41.741Z,46.3706
2023-05-06T08:40:44.054Z,46.5897
2023-05-06T08:41:46.425Z,46.0759
2023-05-06T08:42:48.764Z,45.8974
2023-05-06T08:43:51.073Z,45.7628
2023-05-06T08:44:53.466Z,45.7765
2023-05-06T08:45:55.861Z,45.1665
2023-05-06T08:46:58.142Z,45.3880
2023-05-06T08:48:00.519Z,46.1293
2023-05-06T08:49:02.824Z,44.7099
2023-05-06T08:50:05.170Z,45.7467
2023-05-06T08:51:07.540Z,45.3001
2023-05-06T08:52:09.862Z,44.6030
2023-05-06T08:53:12.259Z,44.2909
2023-05-06T08:54:14.534Z,44.6221
2023-05-06T08:55:17.579Z,44.1853
2023-05-06T08:56:19.253Z,44.6703
2023-05-06T08:57:21.568Z,44.6988
2023-05-06T08:58:23.986Z,44.8019
2023-05-06T08:59:26.328Z,45.1701
2023-05-06T09:00:28.695Z,44.5596
2023-05-06T09:01:31.071Z,44.6001
2023-05-06T09:02:33.424Z,43.3144
2023-05-06T09:03:35.691Z,43.6411
2023-05-06T09:04:38.042Z,43.4040
2023-05-06T09:05:40.368Z,44.2673
2023-05-06T09:06:42.738Z,44.2802
2023-05-06T09:07:45.199Z,44.5744
2023-05-06T09:08:47.401Z,42.9600
2023-05-06T09:09:49.803Z,42.3246
2023-05-06T09:10:52.147Z,42.6490
2023-05-06T09:11:54.468Z,43.5398
2023-05-06T09:12:56.957Z,43.2197
2023-05-06T09:13:59.275Z,43.0421
2023-05-06T09:15:01.547Z,43.1225
2023-05-06T09:16:03.887Z,42.4813
2023-05-06T09:17:06.273Z,42.1145
2023-05-06T09:18:08.689Z,42.2448
2023-05-06T09:19:10.938Z,41.8840
2023-05-06T09:20:13.342Z,41.5233
2023-05-06T09:21:15.658Z,41.3731
2023-05-06T09:22:18.028Z,41.3171
2023-05-06T09:23:20.376Z,41.1883
2023-05-06T09:24:22.787Z,40.9535
2023-05-06T09:25:25.118Z,40.9936
2023-05-06T09:26:27.450Z,41.2051
2023-05-06T09:27:29.762Z,40.9980
2023-05-06T09:28:32.139Z,42.1858
2023-05-06T09:29:34.504Z,42.1881
2023-05-06T09:30:36.829Z,42.0803
2023-05-06T09:31:39.215Z,41.3495
2023-05-06T09:32:41.568Z,41.2131
2023-05-06T09:33:43.858Z,41.4955
2023-05-06T09:34:47.622Z,40.9210
2023-05-06T09:35:48.628Z,41.1460
2023-05-06T09:36:51.140Z,41.2878
2023-05-06T09:38:12.447Z,41.8210
2023-05-06T09:39:03.249Z,41.4829
2023-05-06T09:39:57.955Z,41.6778
2023-05-06T09:41:01.903Z,41.6603
2023-05-06T09:42:02.737Z,41.6329
2023-05-06T09:43:05.076Z,41.1466
2023-05-06T09:44:07.405Z,41.3277
2023-05-06T09:45:10.023Z,40.5962
2023-05-06T09:46:12.077Z,40.5540
2023-05-06T09:47:14.445Z,40.0555
2023-05-06T09:48:18.947Z,40.1699
2023-05-06T09:49:20.777Z,40.2143
2023-05-06T09:50:21.738Z,39.6839
2023-05-06T09:51:23.847Z,39.8013
2023-05-06T09:52:26.194Z,38.4705
2023-05-06T09:53:28.544Z,38.4175
2023-05-06T09:54:30.912Z,39.3084
2023-05-06T09:55:33.258Z,39.5388
2023-05-06T09:56:35.637Z,39.8847
2023-05-06T09:57:37.932Z,40.3090
2023-05-06T09:58:40.628Z,39.7440
2023-05-06T09:59:42.666Z,39.9330
2023-05-06T10:00:45.068Z,38.7792
2023-05-06T10:01:47.416Z,39.5204
2023-05-06T10:02:50.007Z,39.3525
2023-05-06T10:03:52.218Z,40.7040
2023-05-06T10:04:54.698Z,41.2048
2023-05-06T10:05:56.779Z,40.1123
2023-05-06T10:06:59.102Z,39.0901
2023-05-06T10:08:01.433Z,39.9298
2023-05-06T10:09:03.784Z,39.0328
2023-05-06T10:10:06.165Z,39.6735
2023-05-06T10:11:08.515Z,39.0766
2023-05-06T10:12:10.887Z,38.0393
2023-05-06T10:13:13.236Z,38.1422
2023-05-06T10:14:15.569Z,38.9715
2023-05-06T10:15:17.909Z,39.0188
2023-05-06T10:16:20.341Z,38.4678
2023-05-06T10:17:22.638Z,39.2156
2023-05-06T10:18:24.947Z,39.1261
2023-05-06T10:19:27.304Z,39.2226
2023-05-06T10:20:29.643Z,39.3771
2023-05-06T10:21:32.008Z,39.1907
2023-05-06T10:22:34.361Z,39.6117
2023-05-06T10:23:36.698Z,38.6871
2023-05-06T10:24:39.067Z,39.4614
2023-05-06T10:25:41.409Z,39.1702
2023-05-06T10:26:43.774Z,38.4058
2023-05-06T10:27:46.110Z,38.9689
2023-05-06T10:28:48.456Z,39.1750
2023-05-06T10:29:50.797Z,38.5380
2023-05-06T10:30:53.142Z,38.6420
2023-05-06T10:31:55.820Z,38.8261
2023-05-06T10:32:57.918Z,38.3689
2023-05-06T10:34:00.241Z,38.1150
2023-05-06T10:35:02.587Z,37.8783
2023-05-06T10:36:04.941Z,38.2015
2023-05-06T10:37:07.287Z,38.5413
2023-05-06T10:38:09.630Z,39.8004
2023-05-06T10:39:11.980Z,39.4205
2023-05-06T10:40:14.336Z,40.2469
2023-05-06T10:41:16.690Z,40.0194
2023-05-06T10:42:19.050Z,40.1245
2023-05-06T10:43:21.400Z,41.5766
2023-05-06T10:44:23.719Z,42.3043
2023-05-06T10:45:26.105Z,41.3323
2023-05-06T10:46:28.455Z,40.8007
2023-05-06T10:47:30.919Z,42.0195
2023-05-06T10:48:33.131Z,40.9844
2023-05-06T10:49:35.504Z,41.8492
2023-05-06T10:50:37.842Z,41.4599
2023-05-06T10:51:40.206Z,41.8979
2023-05-06T10:52:42.551Z,40.6515
2023-05-06T10:53:44.889Z,40.2277
2023-05-06T10:54:47.266Z,40.7433
2023-05-06T10:55:49.601Z,40.6972
2023-05-06T10:56:51.955Z,42.2321
2023-05-06T10:57:54.288Z,41.3771
2023-05-06T10:58:56.617Z,40.1773
2023-05-06T10:59:58.986Z,40.1840
2023-05-06T11:01:01.381Z,39.7983
2023-05-06T11:02:03.699Z,39.7104
2023-05-06T11:03:06.199Z,39.3854
2023-05-06T11:04:08.395Z,39.6657
2023-05-06T11:05:10.992Z,39.6282
2023-05-06T11:06:13.076Z,39.2667
2023-05-06T11:07:15.416Z,38.6605
2023-05-06T11:08:17.760Z,37.7964
2023-05-06T11:09:20.128Z,38.1239
2023-05-06T11:10:22.471Z,38.9196
2023-05-06T11:11:24.862Z,40.4134
2023-05-06T11:12:27.177Z,40.2762
2023-05-06T11:13:29.655Z,39.4617
2023-05-06T11:14:32.377Z,39.9300
2023-05-06T11:15:34.220Z,40.1706
2023-05-06T11:16:38.684Z,38.9701
2023-05-06T11:17:38.941Z,38.8048
2023-05-06T11:18:41.349Z,39.6770
2023-05-06T11:19:43.640Z,37.8162
2023-05-06T11:20:45.980Z,37.3153
2023-05-06T11:21:50.060Z,38.2863
2023-05-06T11:22:50.684Z,39.2438
2023-05-06T11:23:52.991Z,38.0238
2023-05-06T11:24:55.374Z,38.6286
2023-05-06T11:25:57.722Z,38.1013
2023-05-06T11:27:00.054Z,38.8143
2023-05-06T11:28:02.427Z,38.1727
2023-05-06T11:29:04.743Z,38.8073
2023-05-06T11:30:07.140Z,38.9718
2023-05-06T11:31:09.558Z,39.1529
2023-05-06T11:32:11.801Z,39.2756
2023-05-06T11:33:14.305Z,40.0900
2023-05-06T11:34:16.649Z,40.0798
2023-05-06T11:35:18.865Z,40.0780
2023-05-06T11:36:21.212Z,40.0912
2023-05-06T11:37:23.569Z,41.2575
2023-05-06T11:38:25.876Z,40.7090
2023-05-06T11:39:28.226Z,40.7727
2023-05-06T11:40:30.569Z,40.4031
2023-05-06T11:41:32.940Z,39.9860
2023-05-06T11:42:35.284Z,39.4024
2023-05-06T11:43:37.633Z,39.8850
2023-05-06T11:44:39.970Z,38.9661
2023-05-06T11:45:42.331Z,39.9817
2023-05-06T11:46:44.701Z,39.9513
2023-05-06T11:47:47.152Z,39.8315
2023-05-06T11:48:49.333Z,38.5899
2023-05-06T11:49:51.780Z,39.5241
2023-05-06T11:50:54.063Z,39.9165
2023-05-06T11:51:56.398Z,40.5389
2023-05-06T11:52:58.721Z,39.0301
2023-05-06T11:54:01.107Z,39.8680
2023-05-06T11:55:03.443Z,38.5825
2023-05-06T11:56:05.975Z,38.1503
2023-05-06T11:57:08.160Z,36.7118
2023-05-06T11:58:10.500Z,36.7763
2023-05-06T11:59:12.882Z,36.6372
2023-05-06T12:00:15.775Z,36.6218
2023-05-06T12:01:46.341Z,35.3653
2023-05-06T12:02:48.794Z,34.6769
2023-05-06T12:03:51.218Z,34.2900
2023-05-06T12:04:53.592Z,37.2526
2023-05-06T12:05:56.054Z,38.3151
2023-05-06T12:06:58.388Z,39.0115
2023-05-06T12:08:00.442Z,37.8506
2023-05-06T12:09:02.835Z,37.2964
2023-05-06T12:10:05.184Z,38.0476
2023-05-06T12:11:07.666Z,36.7896
2023-05-06T12:12:09.868Z,38.1555
2023-05-06T12:13:12.274Z,39.3918
2023-05-06T12:14:14.522Z,39.3165
2023-05-06T12:15:16.881Z,39.2589
2023-05-06T12:16:19.321Z,37.5903
2023-05-06T12:17:21.595Z,38.8961
2023-05-06T12:18:23.905Z,36.7072
2023-05-06T12:19:26.294Z,38.5472
2023-05-06T12:20:28.621Z,38.8930
2023-05-06T12:21:31.045Z,39.4049
2023-05-06T12:22:33.314Z,38.7465
2023-05-06T12:23:35.706Z,39.0216
2023-05-06T12:24:38.015Z,38.8283
2023-05-06T12:25:40.345Z,38.3994
2023-05-06T12:26:42.734Z,37.6866
2023-05-06T12:27:45.065Z,37.7191
2023-05-06T12:28:47.388Z,37.9292
2023-05-06T12:29:49.749Z,36.9950
2023-05-06T12:30:52.098Z,36.4927
2023-05-06T12:31:54.494Z,36.1029
2023-05-06T12:32:56.901Z,37.2681
2023-05-06T12:34:01.088Z,38.0450